sensor_id;sensor_type;location;lat;lon;timestamp;P1;durP1;ratioP1;P2;durP2;ratioP2
45206;SDS011;30950;53.086;21.576;2022-09-29T00:01:14;12.57;;;8.15;;
45206;SDS011;30950;53.086;21.576;2022-09-29T00:03:42;11.50;;;8.35;;
45206;SDS011;30950;53.086;21.576;2022-09-29T00:06:11;10.82;;;7.80;;
45206;SDS011;30950;53.086;21.576;2022-09-29T00:08:40;10.18;;;7.90;;
45206;SDS011;30950;53.086;21.576;2022-09-29T00:11:09;9.60;;;7.95;;
45206;SDS011;30950;53.086;21.576;2022-09-29T00:13:38;11.10;;;8.40;;
45206;SDS011;30950;53.086;21.576;2022-09-29T00:16:06;10.90;;;8.48;;
45206;SDS011;30950;53.086;21.576;2022-09-29T00:18:33;10.13;;;8.25;;
45206;SDS011;30950;53.086;21.576;2022-09-29T00:21:07;11.73;;;8.80;;
45206;SDS011;30950;53.086;21.576;2022-09-29T00:23:40;10.07;;;8.38;;
45206;SDS011;30950;53.086;21.576;2022-09-29T00:26:18;12.77;;;9.32;;
45206;SDS011;30950;53.086;21.576;2022-09-29T00:28:54;11.73;;;9.07;;
45206;SDS011;30950;53.086;21.576;2022-09-29T00:31:24;11.77;;;8.77;;
45206;SDS011;30950;53.086;21.576;2022-09-29T00:33:52;11.88;;;9.23;;
45206;SDS011;30950;53.086;21.576;2022-09-29T00:36:20;12.02;;;9.38;;
45206;SDS011;30950;53.086;21.576;2022-09-29T00:38:49;12.98;;;9.43;;
45206;SDS011;30950;53.086;21.576;2022-09-29T00:41:21;11.52;;;9.10;;
45206;SDS011;30950;53.086;21.576;2022-09-29T00:52:10;10.43;;;8.43;;
45206;SDS011;30950;53.086;21.576;2022-09-29T00:55:01;10.23;;;8.50;;
45206;SDS011;30950;53.086;21.576;2022-09-29T00:57:35;11.23;;;8.82;;
45206;SDS011;30950;53.086;21.576;2022-09-29T01:00:08;15.27;;;10.38;;
45206;SDS011;30950;53.086;21.576;2022-09-29T01:02:39;11.45;;;9.15;;
45206;SDS011;30950;53.086;21.576;2022-09-29T01:05:13;11.85;;;9.50;;
45206;SDS011;30950;53.086;21.576;2022-09-29T01:07:45;12.32;;;10.52;;
45206;SDS011;30950;53.086;21.576;2022-09-29T01:10:13;11.05;;;9.48;;
45206;SDS011;30950;53.086;21.576;2022-09-29T01:12:43;10.68;;;9.57;;
45206;SDS011;30950;53.086;21.576;2022-09-29T01:15:13;12.10;;;9.80;;
45206;SDS011;30950;53.086;21.576;2022-09-29T01:17:43;13.43;;;10.98;;
45206;SDS011;30950;53.086;21.576;2022-09-29T01:26:14;18.88;;;12.88;;
45206;SDS011;30950;53.086;21.576;2022-09-29T01:34:10;17.15;;;13.07;;
45206;SDS011;30950;53.086;21.576;2022-09-29T01:36:47;17.30;;;13.55;;
45206;SDS011;30950;53.086;21.576;2022-09-29T01:39:28;18.17;;;14.40;;
45206;SDS011;30950;53.086;21.576;2022-09-29T01:42:03;17.38;;;14.50;;
45206;SDS011;30950;53.086;21.576;2022-09-29T01:44:43;19.25;;;15.88;;
45206;SDS011;30950;53.086;21.576;2022-09-29T01:47:39;21.52;;;15.27;;
45206;SDS011;30950;53.086;21.576;2022-09-29T01:50:12;21.20;;;16.20;;
45206;SDS011;30950;53.086;21.576;2022-09-29T01:52:45;20.30;;;15.90;;
45206;SDS011;30950;53.086;21.576;2022-09-29T01:55:17;19.13;;;15.93;;
45206;SDS011;30950;53.086;21.576;2022-09-29T02:00:36;23.42;;;16.85;;
45206;SDS011;30950;53.086;21.576;2022-09-29T02:05:52;19.70;;;16.02;;
45206;SDS011;30950;53.086;21.576;2022-09-29T02:11:31;20.00;;;16.15;;
45206;SDS011;30950;53.086;21.576;2022-09-29T02:16:39;20.27;;;16.85;;
45206;SDS011;30950;53.086;21.576;2022-09-29T02:19:24;21.10;;;15.80;;
45206;SDS011;30950;53.086;21.576;2022-09-29T02:21:54;20.90;;;16.58;;
45206;SDS011;30950;53.086;21.576;2022-09-29T02:24:21;21.98;;;15.85;;
45206;SDS011;30950;53.086;21.576;2022-09-29T02:26:49;23.95;;;17.70;;
45206;SDS011;30950;53.086;21.576;2022-09-29T02:29:17;22.52;;;16.42;;
45206;SDS011;30950;53.086;21.576;2022-09-29T02:31:46;20.95;;;15.98;;
45206;SDS011;30950;53.086;21.576;2022-09-29T02:34:15;24.30;;;17.20;;
45206;SDS011;30950;53.086;21.576;2022-09-29T02:36:48;22.13;;;16.95;;
45206;SDS011;30950;53.086;21.576;2022-09-29T02:39:30;20.40;;;15.73;;
45206;SDS011;30950;53.086;21.576;2022-09-29T02:44:55;21.63;;;16.63;;
45206;SDS011;30950;53.086;21.576;2022-09-29T02:52:56;21.15;;;16.98;;
45206;SDS011;30950;53.086;21.576;2022-09-29T02:55:42;19.77;;;17.27;;
45206;SDS011;30950;53.086;21.576;2022-09-29T02:58:13;22.52;;;17.25;;
45206;SDS011;30950;53.086;21.576;2022-09-29T03:00:46;22.73;;;17.15;;
45206;SDS011;30950;53.086;21.576;2022-09-29T03:03:14;24.50;;;18.13;;
45206;SDS011;30950;53.086;21.576;2022-09-29T03:05:41;26.27;;;18.90;;
45206;SDS011;30950;53.086;21.576;2022-09-29T03:08:08;20.88;;;16.73;;
45206;SDS011;30950;53.086;21.576;2022-09-29T03:10:35;21.27;;;16.58;;
45206;SDS011;30950;53.086;21.576;2022-09-29T03:13:03;27.40;;;18.60;;
45206;SDS011;30950;53.086;21.576;2022-09-29T03:15:31;25.33;;;20.15;;
45206;SDS011;30950;53.086;21.576;2022-09-29T03:17:58;26.50;;;18.20;;
45206;SDS011;30950;53.086;21.576;2022-09-29T03:20:33;28.17;;;18.60;;
45206;SDS011;30950;53.086;21.576;2022-09-29T03:23:01;26.05;;;18.65;;
45206;SDS011;30950;53.086;21.576;2022-09-29T03:25:28;24.90;;;18.23;;
45206;SDS011;30950;53.086;21.576;2022-09-29T03:27:55;24.75;;;18.67;;
45206;SDS011;30950;53.086;21.576;2022-09-29T03:30:23;26.50;;;18.25;;
45206;SDS011;30950;53.086;21.576;2022-09-29T03:32:50;22.02;;;17.00;;
45206;SDS011;30950;53.086;21.576;2022-09-29T03:35:18;23.52;;;17.52;;
45206;SDS011;30950;53.086;21.576;2022-09-29T03:37:45;23.17;;;18.17;;
45206;SDS011;30950;53.086;21.576;2022-09-29T03:40:12;24.50;;;16.52;;
45206;SDS011;30950;53.086;21.576;2022-09-29T03:42:40;24.58;;;16.40;;
45206;SDS011;30950;53.086;21.576;2022-09-29T03:45:08;22.85;;;17.27;;
45206;SDS011;30950;53.086;21.576;2022-09-29T03:47:35;26.02;;;18.52;;
45206;SDS011;30950;53.086;21.576;2022-09-29T03:50:02;20.40;;;16.75;;
45206;SDS011;30950;53.086;21.576;2022-09-29T03:52:30;22.88;;;16.88;;
45206;SDS011;30950;53.086;21.576;2022-09-29T03:54:57;20.52;;;17.38;;
45206;SDS011;30950;53.086;21.576;2022-09-29T03:57:25;19.88;;;16.85;;
45206;SDS011;30950;53.086;21.576;2022-09-29T03:59:52;20.33;;;16.05;;
45206;SDS011;30950;53.086;21.576;2022-09-29T04:02:20;18.13;;;15.75;;
45206;SDS011;30950;53.086;21.576;2022-09-29T04:04:47;18.60;;;15.85;;
45206;SDS011;30950;53.086;21.576;2022-09-29T04:07:15;17.85;;;15.35;;
45206;SDS011;30950;53.086;21.576;2022-09-29T04:09:42;20.85;;;17.15;;
45206;SDS011;30950;53.086;21.576;2022-09-29T04:12:09;21.00;;;17.20;;
45206;SDS011;30950;53.086;21.576;2022-09-29T04:14:36;19.05;;;15.52;;
45206;SDS011;30950;53.086;21.576;2022-09-29T04:17:04;16.98;;;15.23;;
45206;SDS011;30950;53.086;21.576;2022-09-29T04:19:31;18.40;;;15.45;;
45206;SDS011;30950;53.086;21.576;2022-09-29T04:21:58;21.30;;;16.90;;
45206;SDS011;30950;53.086;21.576;2022-09-29T04:24:26;18.20;;;16.02;;
45206;SDS011;30950;53.086;21.576;2022-09-29T04:26:53;18.90;;;15.68;;
45206;SDS011;30950;53.086;21.576;2022-09-29T04:29:20;19.95;;;16.95;;
45206;SDS011;30950;53.086;21.576;2022-09-29T04:31:48;20.45;;;16.48;;
45206;SDS011;30950;53.086;21.576;2022-09-29T04:34:15;17.73;;;15.85;;
45206;SDS011;30950;53.086;21.576;2022-09-29T04:36:44;21.58;;;17.27;;
45206;SDS011;30950;53.086;21.576;2022-09-29T04:39:12;23.33;;;17.10;;
45206;SDS011;30950;53.086;21.576;2022-09-29T04:41:39;21.42;;;16.92;;
45206;SDS011;30950;53.086;21.576;2022-09-29T04:44:07;25.48;;;19.27;;
45206;SDS011;30950;53.086;21.576;2022-09-29T04:46:34;26.42;;;18.30;;
45206;SDS011;30950;53.086;21.576;2022-09-29T04:49:01;22.83;;;18.85;;
45206;SDS011;30950;53.086;21.576;2022-09-29T04:51:29;23.58;;;18.52;;
45206;SDS011;30950;53.086;21.576;2022-09-29T04:53:56;25.85;;;18.20;;
45206;SDS011;30950;53.086;21.576;2022-09-29T04:56:24;28.30;;;21.17;;
45206;SDS011;30950;53.086;21.576;2022-09-29T04:58:57;24.52;;;18.25;;
45206;SDS011;30950;53.086;21.576;2022-09-29T05:01:25;21.83;;;18.52;;
45206;SDS011;30950;53.086;21.576;2022-09-29T05:03:53;21.48;;;18.42;;
45206;SDS011;30950;53.086;21.576;2022-09-29T05:06:20;22.75;;;19.17;;
45206;SDS011;30950;53.086;21.576;2022-09-29T05:08:48;21.40;;;17.45;;
45206;SDS011;30950;53.086;21.576;2022-09-29T05:11:15;21.33;;;17.13;;
45206;SDS011;30950;53.086;21.576;2022-09-29T05:13:43;21.80;;;17.60;;
45206;SDS011;30950;53.086;21.576;2022-09-29T05:16:10;23.73;;;19.15;;
45206;SDS011;30950;53.086;21.576;2022-09-29T05:18:37;21.48;;;17.48;;
45206;SDS011;30950;53.086;21.576;2022-09-29T05:21:05;23.13;;;16.27;;
45206;SDS011;30950;53.086;21.576;2022-09-29T05:23:53;23.77;;;18.17;;
45206;SDS011;30950;53.086;21.576;2022-09-29T05:26:21;29.15;;;24.73;;
45206;SDS011;30950;53.086;21.576;2022-09-29T05:28:48;24.83;;;20.10;;
45206;SDS011;30950;53.086;21.576;2022-09-29T05:31:16;23.52;;;19.30;;
45206;SDS011;30950;53.086;21.576;2022-09-29T05:33:44;23.48;;;19.33;;
45206;SDS011;30950;53.086;21.576;2022-09-29T05:36:11;23.75;;;18.88;;
45206;SDS011;30950;53.086;21.576;2022-09-29T05:38:39;28.48;;;21.23;;
45206;SDS011;30950;53.086;21.576;2022-09-29T05:41:10;26.63;;;21.38;;
45206;SDS011;30950;53.086;21.576;2022-09-29T05:43:38;27.38;;;20.70;;
45206;SDS011;30950;53.086;21.576;2022-09-29T05:46:06;30.88;;;23.55;;
45206;SDS011;30950;53.086;21.576;2022-09-29T05:48:35;31.55;;;23.70;;
45206;SDS011;30950;53.086;21.576;2022-09-29T05:51:07;28.40;;;22.85;;
45206;SDS011;30950;53.086;21.576;2022-09-29T05:53:37;24.48;;;20.80;;
45206;SDS011;30950;53.086;21.576;2022-09-29T05:56:05;22.92;;;19.23;;
45206;SDS011;30950;53.086;21.576;2022-09-29T05:58:38;23.75;;;19.25;;
45206;SDS011;30950;53.086;21.576;2022-09-29T06:01:07;21.42;;;17.95;;
45206;SDS011;30950;53.086;21.576;2022-09-29T06:03:36;22.58;;;19.52;;
45206;SDS011;30950;53.086;21.576;2022-09-29T06:06:07;23.33;;;18.83;;
45206;SDS011;30950;53.086;21.576;2022-09-29T06:08:36;21.55;;;18.33;;
45206;SDS011;30950;53.086;21.576;2022-09-29T06:13:40;20.55;;;18.08;;
45206;SDS011;30950;53.086;21.576;2022-09-29T06:16:10;21.75;;;17.95;;
45206;SDS011;30950;53.086;21.576;2022-09-29T06:18:38;24.35;;;20.15;;
45206;SDS011;30950;53.086;21.576;2022-09-29T06:23:38;22.27;;;18.73;;
45206;SDS011;30950;53.086;21.576;2022-09-29T06:26:07;24.17;;;18.65;;
45206;SDS011;30950;53.086;21.576;2022-09-29T06:28:36;20.83;;;17.45;;
45206;SDS011;30950;53.086;21.576;2022-09-29T06:31:09;22.67;;;18.45;;
45206;SDS011;30950;53.086;21.576;2022-09-29T06:33:38;19.48;;;16.60;;
45206;SDS011;30950;53.086;21.576;2022-09-29T06:36:27;21.48;;;18.95;;
45206;SDS011;30950;53.086;21.576;2022-09-29T06:39:16;20.27;;;18.08;;
45206;SDS011;30950;53.086;21.576;2022-09-29T06:41:44;19.83;;;17.40;;
45206;SDS011;30950;53.086;21.576;2022-09-29T06:44:18;24.38;;;20.20;;
45206;SDS011;30950;53.086;21.576;2022-09-29T06:46:46;21.83;;;19.10;;
45206;SDS011;30950;53.086;21.576;2022-09-29T06:49:14;21.92;;;18.08;;
45206;SDS011;30950;53.086;21.576;2022-09-29T06:51:42;21.70;;;18.35;;
45206;SDS011;30950;53.086;21.576;2022-09-29T06:54:12;23.05;;;18.95;;
45206;SDS011;30950;53.086;21.576;2022-09-29T06:56:41;20.30;;;18.13;;
45206;SDS011;30950;53.086;21.576;2022-09-29T06:59:08;20.05;;;17.70;;
45206;SDS011;30950;53.086;21.576;2022-09-29T07:01:36;26.45;;;19.08;;
45206;SDS011;30950;53.086;21.576;2022-09-29T07:04:06;23.00;;;17.73;;
45206;SDS011;30950;53.086;21.576;2022-09-29T07:06:33;26.23;;;18.42;;
45206;SDS011;30950;53.086;21.576;2022-09-29T07:09:01;20.17;;;17.70;;
45206;SDS011;30950;53.086;21.576;2022-09-29T07:11:28;25.25;;;19.77;;
45206;SDS011;30950;53.086;21.576;2022-09-29T07:13:56;26.38;;;21.92;;
45206;SDS011;30950;53.086;21.576;2022-09-29T07:16:23;22.13;;;17.95;;
45206;SDS011;30950;53.086;21.576;2022-09-29T07:18:51;23.25;;;19.98;;
45206;SDS011;30950;53.086;21.576;2022-09-29T07:21:18;23.98;;;19.70;;
45206;SDS011;30950;53.086;21.576;2022-09-29T07:23:48;20.92;;;18.02;;
45206;SDS011;30950;53.086;21.576;2022-09-29T07:26:15;26.73;;;20.23;;
45206;SDS011;30950;53.086;21.576;2022-09-29T07:28:43;26.25;;;20.73;;
45206;SDS011;30950;53.086;21.576;2022-09-29T07:31:13;25.77;;;20.00;;
45206;SDS011;30950;53.086;21.576;2022-09-29T07:33:42;24.88;;;21.30;;
45206;SDS011;30950;53.086;21.576;2022-09-29T07:36:11;25.85;;;20.38;;
45206;SDS011;30950;53.086;21.576;2022-09-29T07:38:39;24.55;;;21.08;;
45206;SDS011;30950;53.086;21.576;2022-09-29T07:41:08;24.95;;;21.25;;
45206;SDS011;30950;53.086;21.576;2022-09-29T07:43:37;29.73;;;23.02;;
45206;SDS011;30950;53.086;21.576;2022-09-29T07:46:05;27.25;;;22.10;;
45206;SDS011;30950;53.086;21.576;2022-09-29T07:48:34;26.88;;;21.17;;
45206;SDS011;30950;53.086;21.576;2022-09-29T07:53:38;27.42;;;19.70;;
45206;SDS011;30950;53.086;21.576;2022-09-29T07:58:38;24.90;;;18.73;;
45206;SDS011;30950;53.086;21.576;2022-09-29T08:01:08;24.05;;;20.40;;
45206;SDS011;30950;53.086;21.576;2022-09-29T08:03:38;24.10;;;19.35;;
45206;SDS011;30950;53.086;21.576;2022-09-29T08:06:07;19.75;;;16.45;;
45206;SDS011;30950;53.086;21.576;2022-09-29T08:08:39;20.45;;;16.55;;
45206;SDS011;30950;53.086;21.576;2022-09-29T08:11:14;18.60;;;15.55;;
45206;SDS011;30950;53.086;21.576;2022-09-29T08:13:56;19.95;;;16.27;;
45206;SDS011;30950;53.086;21.576;2022-09-29T08:16:23;21.02;;;16.45;;
45206;SDS011;30950;53.086;21.576;2022-09-29T08:18:50;18.50;;;16.45;;
45206;SDS011;30950;53.086;21.576;2022-09-29T08:21:18;18.85;;;16.75;;
45206;SDS011;30950;53.086;21.576;2022-09-29T08:23:45;17.10;;;15.15;;
45206;SDS011;30950;53.086;21.576;2022-09-29T08:26:14;17.00;;;14.60;;
45206;SDS011;30950;53.086;21.576;2022-09-29T08:28:45;15.75;;;14.05;;
45206;SDS011;30950;53.086;21.576;2022-09-29T08:31:31;19.20;;;15.07;;
45206;SDS011;30950;53.086;21.576;2022-09-29T08:33:59;18.02;;;15.63;;
45206;SDS011;30950;53.086;21.576;2022-09-29T08:36:27;16.52;;;14.07;;
45206;SDS011;30950;53.086;21.576;2022-09-29T08:38:55;16.70;;;15.00;;
45206;SDS011;30950;53.086;21.576;2022-09-29T08:44:35;16.10;;;14.40;;
45206;SDS011;30950;53.086;21.576;2022-09-29T08:53:15;14.68;;;13.18;;
45206;SDS011;30950;53.086;21.576;2022-09-29T08:55:55;14.35;;;12.85;;
45206;SDS011;30950;53.086;21.576;2022-09-29T08:58:28;16.08;;;13.60;;
45206;SDS011;30950;53.086;21.576;2022-09-29T09:25:25;15.82;;;13.85;;
45206;SDS011;30950;53.086;21.576;2022-09-29T09:30:27;21.42;;;17.02;;
45206;SDS011;30950;53.086;21.576;2022-09-29T09:33:02;23.05;;;18.88;;
45206;SDS011;30950;53.086;21.576;2022-09-29T09:35:35;19.27;;;14.80;;
45206;SDS011;30950;53.086;21.576;2022-09-29T09:38:26;22.23;;;16.33;;
45206;SDS011;30950;53.086;21.576;2022-09-29T09:41:02;20.55;;;16.50;;
45206;SDS011;30950;53.086;21.576;2022-09-29T09:43:30;21.20;;;16.95;;
45206;SDS011;30950;53.086;21.576;2022-09-29T09:46:07;20.73;;;16.33;;
45206;SDS011;30950;53.086;21.576;2022-09-29T09:49:04;17.38;;;15.55;;
45206;SDS011;30950;53.086;21.576;2022-09-29T09:54:33;20.55;;;17.42;;
45206;SDS011;30950;53.086;21.576;2022-09-29T10:02:41;21.70;;;16.20;;
45206;SDS011;30950;53.086;21.576;2022-09-29T10:05:21;17.95;;;15.57;;
45206;SDS011;30950;53.086;21.576;2022-09-29T10:07:55;22.33;;;15.85;;
45206;SDS011;30950;53.086;21.576;2022-09-29T10:10:25;18.25;;;15.43;;
45206;SDS011;30950;53.086;21.576;2022-09-29T10:13:00;19.63;;;15.93;;
45206;SDS011;30950;53.086;21.576;2022-09-29T10:15:49;18.67;;;15.50;;
45206;SDS011;30950;53.086;21.576;2022-09-29T10:21:34;20.45;;;17.52;;
45206;SDS011;30950;53.086;21.576;2022-09-29T10:24:03;18.70;;;16.42;;
45206;SDS011;30950;53.086;21.576;2022-09-29T10:26:43;23.45;;;16.42;;
45206;SDS011;30950;53.086;21.576;2022-09-29T10:31:57;20.40;;;16.17;;
45206;SDS011;30950;53.086;21.576;2022-09-29T10:34:27;24.95;;;17.50;;
45206;SDS011;30950;53.086;21.576;2022-09-29T10:37:05;18.10;;;14.50;;
45206;SDS011;30950;53.086;21.576;2022-09-29T10:42:38;17.23;;;14.40;;
45206;SDS011;30950;53.086;21.576;2022-09-29T10:45:13;17.42;;;14.68;;
45206;SDS011;30950;53.086;21.576;2022-09-29T10:47:45;15.85;;;13.40;;
45206;SDS011;30950;53.086;21.576;2022-09-29T10:52:46;19.17;;;14.55;;
45206;SDS011;30950;53.086;21.576;2022-09-29T10:55:19;17.80;;;15.15;;
45206;SDS011;30950;53.086;21.576;2022-09-29T10:57:49;18.00;;;14.57;;
45206;SDS011;30950;53.086;21.576;2022-09-29T11:03:00;22.95;;;18.33;;
45206;SDS011;30950;53.086;21.576;2022-09-29T11:05:32;22.67;;;18.70;;
45206;SDS011;30950;53.086;21.576;2022-09-29T11:08:01;17.75;;;15.63;;
45206;SDS011;30950;53.086;21.576;2022-09-29T11:10:30;17.90;;;13.90;;
45206;SDS011;30950;53.086;21.576;2022-09-29T11:13:08;15.18;;;13.60;;
45206;SDS011;30950;53.086;21.576;2022-09-29T11:15:50;17.13;;;12.85;;
45206;SDS011;30950;53.086;21.576;2022-09-29T11:18:31;18.15;;;14.50;;
45206;SDS011;30950;53.086;21.576;2022-09-29T11:21:15;17.42;;;15.32;;
45206;SDS011;30950;53.086;21.576;2022-09-29T11:26:47;28.00;;;19.92;;
45206;SDS011;30950;53.086;21.576;2022-09-29T11:29:36;17.58;;;15.73;;
45206;SDS011;30950;53.086;21.576;2022-09-29T11:32:21;24.83;;;21.90;;
45206;SDS011;30950;53.086;21.576;2022-09-29T12:18:08;18.05;;;15.65;;
45206;SDS011;30950;53.086;21.576;2022-09-29T12:20:52;20.77;;;18.25;;
45206;SDS011;30950;53.086;21.576;2022-09-29T12:23:22;23.65;;;18.92;;
45206;SDS011;30950;53.086;21.576;2022-09-29T12:28:44;24.58;;;18.80;;
45206;SDS011;30950;53.086;21.576;2022-09-29T12:31:36;24.02;;;19.27;;
45206;SDS011;30950;53.086;21.576;2022-09-29T12:34:16;19.35;;;16.13;;
45206;SDS011;30950;53.086;21.576;2022-09-29T12:44:49;20.63;;;16.35;;
45206;SDS011;30950;53.086;21.576;2022-09-29T12:50:36;18.48;;;16.45;;
45206;SDS011;30950;53.086;21.576;2022-09-29T12:58:21;30.88;;;25.17;;
45206;SDS011;30950;53.086;21.576;2022-09-29T13:23:18;21.88;;;17.98;;
45206;SDS011;30950;53.086;21.576;2022-09-29T13:31:02;22.88;;;18.20;;
45206;SDS011;30950;53.086;21.576;2022-09-29T13:33:33;21.92;;;19.05;;
45206;SDS011;30950;53.086;21.576;2022-09-29T13:36:01;23.15;;;19.33;;
45206;SDS011;30950;53.086;21.576;2022-09-29T13:38:29;21.45;;;16.83;;
45206;SDS011;30950;53.086;21.576;2022-09-29T13:51:50;22.88;;;18.75;;
45206;SDS011;30950;53.086;21.576;2022-09-29T13:57:00;21.20;;;18.95;;
45206;SDS011;30950;53.086;21.576;2022-09-29T14:02:32;22.98;;;18.10;;
45206;SDS011;30950;53.086;21.576;2022-09-29T14:05:27;22.58;;;18.80;;
45206;SDS011;30950;53.086;21.576;2022-09-29T14:13:05;22.38;;;19.42;;
45206;SDS011;30950;53.086;21.576;2022-09-29T14:21:01;26.13;;;20.67;;
45206;SDS011;30950;53.086;21.576;2022-09-29T14:29:15;33.55;;;24.40;;
45206;SDS011;30950;53.086;21.576;2022-09-29T14:31:52;32.17;;;22.73;;
45206;SDS011;30950;53.086;21.576;2022-09-29T14:34:23;28.73;;;21.15;;
45206;SDS011;30950;53.086;21.576;2022-09-29T14:36:54;26.48;;;19.92;;
45206;SDS011;30950;53.086;21.576;2022-09-29T14:39:24;25.15;;;21.55;;
45206;SDS011;30950;53.086;21.576;2022-09-29T14:41:53;20.95;;;18.67;;
45206;SDS011;30950;53.086;21.576;2022-09-29T14:53:38;19.45;;;16.67;;
45206;SDS011;30950;53.086;21.576;2022-09-29T15:04:37;23.20;;;19.67;;
45206;SDS011;30950;53.086;21.576;2022-09-29T15:07:09;23.35;;;19.20;;
45206;SDS011;30950;53.086;21.576;2022-09-29T15:09:42;26.27;;;20.33;;
45206;SDS011;30950;53.086;21.576;2022-09-29T15:12:15;28.25;;;21.58;;
45206;SDS011;30950;53.086;21.576;2022-09-29T15:14:47;26.30;;;21.98;;
45206;SDS011;30950;53.086;21.576;2022-09-29T15:20:13;23.42;;;20.17;;
45206;SDS011;30950;53.086;21.576;2022-09-29T15:25:44;27.10;;;21.17;;
45206;SDS011;30950;53.086;21.576;2022-09-29T15:28:17;26.88;;;20.80;;
45206;SDS011;30950;53.086;21.576;2022-09-29T15:31:04;23.95;;;20.65;;
45206;SDS011;30950;53.086;21.576;2022-09-29T15:33:36;22.77;;;20.02;;
45206;SDS011;30950;53.086;21.576;2022-09-29T15:36:07;26.80;;;21.92;;
45206;SDS011;30950;53.086;21.576;2022-09-29T15:38:50;27.30;;;20.77;;
45206;SDS011;30950;53.086;21.576;2022-09-29T15:41:20;23.42;;;20.25;;
45206;SDS011;30950;53.086;21.576;2022-09-29T15:43:58;24.52;;;20.88;;
45206;SDS011;30950;53.086;21.576;2022-09-29T15:51:38;25.73;;;20.10;;
45206;SDS011;30950;53.086;21.576;2022-09-29T15:54:06;29.50;;;25.23;;
45206;SDS011;30950;53.086;21.576;2022-09-29T15:56:38;30.63;;;24.35;;
45206;SDS011;30950;53.086;21.576;2022-09-29T15:59:40;25.90;;;22.13;;
45206;SDS011;30950;53.086;21.576;2022-09-29T16:05:05;57.90;;;37.83;;
45206;SDS011;30950;53.086;21.576;2022-09-29T16:07:40;51.97;;;35.65;;
45206;SDS011;30950;53.086;21.576;2022-09-29T16:10:20;113.57;;;61.97;;
45206;SDS011;30950;53.086;21.576;2022-09-29T16:12:53;170.20;;;96.68;;
45206;SDS011;30950;53.086;21.576;2022-09-29T16:17:56;44.33;;;38.38;;
45206;SDS011;30950;53.086;21.576;2022-09-29T16:20:30;41.00;;;29.70;;
45206;SDS011;30950;53.086;21.576;2022-09-29T16:23:34;40.22;;;31.55;;
45206;SDS011;30950;53.086;21.576;2022-09-29T16:26:11;38.03;;;28.95;;
45206;SDS011;30950;53.086;21.576;2022-09-29T16:29:02;38.67;;;32.72;;
45206;SDS011;30950;53.086;21.576;2022-09-29T16:31:39;43.05;;;31.80;;
45206;SDS011;30950;53.086;21.576;2022-09-29T16:36:51;55.42;;;36.78;;
45206;SDS011;30950;53.086;21.576;2022-09-29T16:39:31;53.92;;;38.33;;
45206;SDS011;30950;53.086;21.576;2022-09-29T16:42:17;53.05;;;41.40;;
45206;SDS011;30950;53.086;21.576;2022-09-29T16:44:47;53.75;;;40.75;;
45206;SDS011;30950;53.086;21.576;2022-09-29T16:49:54;45.20;;;34.67;;
45206;SDS011;30950;53.086;21.576;2022-09-29T16:52:42;61.00;;;46.55;;
45206;SDS011;30950;53.086;21.576;2022-09-29T16:55:21;42.67;;;31.00;;
45206;SDS011;30950;53.086;21.576;2022-09-29T16:57:58;48.63;;;33.53;;
45206;SDS011;30950;53.086;21.576;2022-09-29T17:00:28;46.10;;;34.15;;
45206;SDS011;30950;53.086;21.576;2022-09-29T17:02:56;39.97;;;29.85;;
45206;SDS011;30950;53.086;21.576;2022-09-29T17:05:24;36.17;;;28.63;;
45206;SDS011;30950;53.086;21.576;2022-09-29T17:07:58;33.10;;;26.65;;
45206;SDS011;30950;53.086;21.576;2022-09-29T17:10:27;33.70;;;26.02;;
45206;SDS011;30950;53.086;21.576;2022-09-29T17:12:55;39.70;;;29.50;;
45206;SDS011;30950;53.086;21.576;2022-09-29T17:15:23;39.65;;;31.30;;
45206;SDS011;30950;53.086;21.576;2022-09-29T17:17:51;49.13;;;40.85;;
45206;SDS011;30950;53.086;21.576;2022-09-29T17:20:20;51.90;;;42.35;;
45206;SDS011;30950;53.086;21.576;2022-09-29T17:22:56;46.60;;;40.15;;
45206;SDS011;30950;53.086;21.576;2022-09-29T17:25:25;54.08;;;42.65;;
45206;SDS011;30950;53.086;21.576;2022-09-29T17:27:53;52.38;;;38.72;;
45206;SDS011;30950;53.086;21.576;2022-09-29T17:30:39;46.95;;;39.20;;
45206;SDS011;30950;53.086;21.576;2022-09-29T17:33:09;43.90;;;35.03;;
45206;SDS011;30950;53.086;21.576;2022-09-29T17:35:39;35.40;;;28.92;;
45206;SDS011;30950;53.086;21.576;2022-09-29T17:38:15;35.75;;;27.52;;
45206;SDS011;30950;53.086;21.576;2022-09-29T17:43:30;31.10;;;24.27;;
45206;SDS011;30950;53.086;21.576;2022-09-29T17:45:59;29.70;;;23.50;;
45206;SDS011;30950;53.086;21.576;2022-09-29T17:48:28;29.98;;;23.33;;
45206;SDS011;30950;53.086;21.576;2022-09-29T17:50:56;28.42;;;22.17;;
45206;SDS011;30950;53.086;21.576;2022-09-29T17:53:25;26.33;;;22.40;;
45206;SDS011;30950;53.086;21.576;2022-09-29T17:55:53;28.27;;;22.38;;
45206;SDS011;30950;53.086;21.576;2022-09-29T17:58:23;25.13;;;21.02;;
45206;SDS011;30950;53.086;21.576;2022-09-29T18:00:51;29.48;;;23.67;;
45206;SDS011;30950;53.086;21.576;2022-09-29T18:03:20;27.88;;;21.95;;
45206;SDS011;30950;53.086;21.576;2022-09-29T18:05:48;30.73;;;23.80;;
45206;SDS011;30950;53.086;21.576;2022-09-29T18:08:26;33.88;;;26.02;;
45206;SDS011;30950;53.086;21.576;2022-09-29T18:10:56;33.47;;;25.42;;
45206;SDS011;30950;53.086;21.576;2022-09-29T18:13:26;36.00;;;28.20;;
45206;SDS011;30950;53.086;21.576;2022-09-29T18:15:55;35.03;;;26.83;;
45206;SDS011;30950;53.086;21.576;2022-09-29T18:18:24;40.78;;;30.00;;
45206;SDS011;30950;53.086;21.576;2022-09-29T18:20:51;42.25;;;31.00;;
45206;SDS011;30950;53.086;21.576;2022-09-29T18:23:19;45.72;;;32.58;;
45206;SDS011;30950;53.086;21.576;2022-09-29T18:25:50;45.10;;;31.08;;
45206;SDS011;30950;53.086;21.576;2022-09-29T18:28:18;43.75;;;32.25;;
45206;SDS011;30950;53.086;21.576;2022-09-29T18:30:47;56.88;;;32.42;;
45206;SDS011;30950;53.086;21.576;2022-09-29T18:33:17;44.47;;;30.58;;
45206;SDS011;30950;53.086;21.576;2022-09-29T18:35:49;46.30;;;31.05;;
45206;SDS011;30950;53.086;21.576;2022-09-29T18:38:18;41.25;;;30.15;;
45206;SDS011;30950;53.086;21.576;2022-09-29T18:40:46;35.75;;;26.85;;
45206;SDS011;30950;53.086;21.576;2022-09-29T18:43:14;36.15;;;28.52;;
45206;SDS011;30950;53.086;21.576;2022-09-29T18:45:41;37.13;;;27.00;;
45206;SDS011;30950;53.086;21.576;2022-09-29T18:48:10;35.97;;;26.45;;
45206;SDS011;30950;53.086;21.576;2022-09-29T18:50:42;38.95;;;27.83;;
45206;SDS011;30950;53.086;21.576;2022-09-29T18:53:12;36.80;;;27.55;;
45206;SDS011;30950;53.086;21.576;2022-09-29T18:55:42;33.00;;;25.83;;
45206;SDS011;30950;53.086;21.576;2022-09-29T18:58:12;38.65;;;26.92;;
45206;SDS011;30950;53.086;21.576;2022-09-29T19:00:42;35.80;;;26.42;;
45206;SDS011;30950;53.086;21.576;2022-09-29T19:03:11;34.92;;;26.42;;
45206;SDS011;30950;53.086;21.576;2022-09-29T19:05:39;35.83;;;26.23;;
45206;SDS011;30950;53.086;21.576;2022-09-29T19:08:09;36.75;;;27.08;;
45206;SDS011;30950;53.086;21.576;2022-09-29T19:10:37;37.65;;;27.77;;